Time;durP1;ratioP1;P1;durP2;ratioP2;P2;SDS_P1;SDS_P2;PMS_P1;PMS_P2;Temp;Humidity;BMP_temperature;BMP_pressure;BME280_temperature;BME280_humidity;BME280_pressure;Samples;Min_cycle;Max_cycle;Signal;HPM_P1;HPM_P2
2022/10/27 00:01:29;;;;;;;19.23;9.20;;;12.30;58.00;;;;;;7361766;19;20022;-67
2022/10/27 00:04:02;;;;;;;14.80;9.00;;;12.40;59.50;;;;;;7376138;19;20015;-68
2022/10/27 00:06:31;;;;;;;14.48;8.70;;;12.20;58.50;;;;;;7373818;19;20366;-67
2022/10/27 00:09:01;;;;;;;14.32;8.30;;;12.20;59.00;;;;;;7359764;19;20014;-66
2022/10/27 00:11:31;;;;;;;16.02;8.35;;;12.20;59.40;;;;;;7362229;19;20010;-67
2022/10/27 00:14:01;;;;;;;16.30;8.35;;;12.20;59.40;;;;;;7359296;19;20474;-67
2022/10/27 00:16:30;;;;;;;21.85;10.77;;;12.20;59.90;;;;;;7352243;19;20010;-68
2022/10/27 00:19:03;;;;;;;17.05;10.18;;;12.30;61.70;;;;;;7364389;19;20014;-68
2022/10/27 00:21:32;;;;;;;18.77;10.23;;;12.30;61.70;;;;;;7383719;19;20018;-68
2022/10/27 00:24:02;;;;;;;16.73;10.50;;;12.40;62.40;;;;;;7358029;19;20007;-67
2022/10/27 00:26:32;;;;;;;21.58;11.77;;;12.30;62.10;;;;;;7351268;19;20033;-67
2022/10/27 00:29:02;;;;;;;19.55;10.85;;;12.30;62.80;;;;;;7358825;19;20018;-68
2022/10/27 00:31:31;;;;;;;22.20;10.85;;;12.40;63.40;;;;;;7358911;19;20019;-66
2022/10/27 00:34:04;;;;;;;19.50;11.43;;;12.30;63.20;;;;;;7360014;19;20494;-68
2022/10/27 00:36:34;;;;;;;20.90;10.20;;;12.30;63.70;;;;;;7372231;19;20021;-66
2022/10/27 00:39:04;;;;;;;24.95;11.48;;;12.30;63.70;;;;;;7358329;19;20133;-66
2022/10/27 00:41:35;;;;;;;20.30;11.70;;;12.30;63.70;;;;;;7360158;19;20029;-69
2022/10/27 00:44:30;;;;;;;19.10;10.80;;;12.20;63.80;;;;;;7359126;19;20030;-66
2022/10/27 00:47:04;;;;;;;20.45;11.45;;;12.20;64.10;;;;;;7353734;19;20018;-67
2022/10/27 00:49:42;;;;;;;20.92;10.57;;;12.20;64.40;;;;;;7357276;19;20038;-68
2022/10/27 00:52:17;;;;;;;15.52;11.07;;;12.20;64.50;;;;;;7359157;19;20021;-67
2022/10/27 00:54:47;;;;;;;18.00;10.73;;;12.10;64.50;;;;;;7383764;19;20464;-67
2022/10/27 00:57:17;;;;;;;17.45;10.63;;;12.10;64.40;;;;;;7358270;19;20054;-67
2022/10/27 00:59:47;;;;;;;24.02;11.00;;;12.10;64.80;;;;;;7365425;19;20047;-67
2022/10/27 01:02:16;;;;;;;18.27;10.75;;;12.10;65.30;;;;;;7367472;19;20007;-67
2022/10/27 01:04:53;;;;;;;25.85;12.05;;;12.20;65.70;;;;;;7364457;19;20018;-68
2022/10/27 01:07:24;;;;;;;26.58;12.93;;;12.10;65.30;;;;;;7359780;19;20018;-67
2022/10/27 01:09:54;;;;;;;18.13;11.98;;;12.10;65.30;;;;;;7386642;19;20471;-68
2022/10/27 01:12:23;;;;;;;21.33;12.93;;;12.00;65.60;;;;;;7366605;19;20013;-68
2022/10/27 01:14:54;;;;;;;23.95;12.20;;;12.00;65.50;;;;;;7364194;19;20003;-68
2022/10/27 01:17:34;;;;;;;24.63;12.52;;;12.00;65.60;;;;;;7360676;19;20447;-68
2022/10/27 01:20:36;;;;;;;24.05;11.20;;;11.90;65.70;;;;;;7364833;19;20089;-67
2022/10/27 01:23:17;;;;;;;25.35;12.30;;;12.00;66.30;;;;;;7366634;19;20066;-67
2022/10/27 01:26:14;;;;;;;19.30;11.35;;;12.00;66.50;;;;;;7361964;19;20064;-67
2022/10/27 01:29:05;;;;;;;21.38;11.38;;;12.00;66.50;;;;;;7365327;19;20010;-68
2022/10/27 01:31:43;;;;;;;19.15;11.38;;;12.00;66.60;;;;;;7366048;19;20057;-67
2022/10/27 01:34:22;;;;;;;23.05;11.48;;;12.00;66.90;;;;;;7366657;19;20025;-67
2022/10/27 01:36:55;;;;;;;21.52;11.27;;;12.00;67.00;;;;;;7379914;19;20015;-67
2022/10/27 01:39:32;;;;;;;21.40;12.25;;;12.00;67.30;;;;;;7365193;19;20358;-67
2022/10/27 01:42:09;;;;;;;21.48;11.50;;;12.10;67.60;;;;;;7365462;19;20006;-67
2022/10/27 01:44:43;;;;;;;19.20;11.38;;;12.00;67.50;;;;;;7362845;19;20038;-67
2022/10/27 01:47:17;;;;;;;18.50;11.18;;;12.00;67.50;;;;;;7359335;19;20011;-67
2022/10/27 01:49:47;;;;;;;;;;;11.90;67.40;;;;;;7364807;19;20017;-67
2022/10/27 01:52:42;;;;;;;20.48;10.80;;;11.90;67.40;;;;;;7367211;19;19932;-67
2022/10/27 01:55:19;;;;;;;19.60;11.23;;;12.00;67.70;;;;;;7363928;19;20454;-67
2022/10/27 01:58:09;;;;;;;24.38;11.82;;;11.90;67.50;;;;;;7377970;19;20046;-68
2022/10/27 02:00:49;;;;;;;21.83;11.35;;;11.90;67.50;;;;;;7366215;19;20011;-68
2022/10/27 02:03:28;;;;;;;17.92;11.40;;;11.90;67.60;;;;;;7365749;19;20026;-67
2022/10/27 02:06:05;;;;;;;17.50;11.20;;;11.90;67.60;;;;;;7354200;19;20037;-68
2022/10/27 02:08:41;;;;;;;22.85;11.48;;;11.80;67.60;;;;;;7364086;19;20030;-68
2022/10/27 02:11:13;;;;;;;28.17;11.98;;;11.80;67.50;;;;;;7365269;19;20398;-68
2022/10/27 02:13:47;;;;;;;18.40;12.05;;;11.80;67.60;;;;;;7365734;19;20136;-68
2022/10/27 02:16:22;;;;;;;27.17;12.25;;;11.80;68.30;;;;;;7354551;19;20871;-68
2022/10/27 02:18:56;;;;;;;22.40;12.18;;;11.70;67.70;;;;;;7384963;19;20033;-68
2022/10/27 02:21:27;;;;;;;26.70;13.02;;;11.70;67.90;;;;;;7365392;19;20375;-68
2022/10/27 02:23:57;;;;;;;26.85;12.05;;;11.70;68.10;;;;;;7363985;19;20014;-66
2022/10/27 02:26:33;;;;;;;18.42;13.30;;;11.60;68.10;;;;;;7355737;19;20034;-66
2022/10/27 02:29:05;;;;;;;19.73;12.32;;;11.60;68.10;;;;;;7364402;19;20026;-67
2022/10/27 02:31:39;;;;;;;23.13;13.00;;;11.60;68.10;;;;;;7365186;19;20014;-68
2022/10/27 02:34:12;;;;;;;21.95;12.65;;;11.60;68.10;;;;;;7363509;19;20043;-67
2022/10/27 02:36:42;;;;;;;25.40;13.40;;;11.50;67.80;;;;;;7376810;19;20046;-67
2022/10/27 02:39:12;;;;;;;17.63;12.50;;;11.60;68.10;;;;;;7362341;19;20045;-67
2022/10/27 02:41:42;;;;;;;26.35;11.90;;;11.60;68.30;;;;;;7363797;19;20014;-68
2022/10/27 02:44:12;;;;;;;23.83;12.73;;;11.50;68.20;;;;;;7363629;19;20011;-68
2022/10/27 02:46:41;;;;;;;24.52;14.18;;;11.60;68.60;;;;;;7360462;19;20014;-68
2022/10/27 02:49:16;;;;;;;24.17;13.80;;;11.70;69.00;;;;;;7360886;19;20018;-67
2022/10/27 02:51:46;;;;;;;20.42;14.68;;;11.60;68.80;;;;;;7387369;19;20370;-67
2022/10/27 02:54:16;;;;;;;23.05;14.75;;;11.70;68.80;;;;;;7363217;19;20510;-68
2022/10/27 02:56:46;;;;;;;22.25;13.77;;;11.70;68.90;;;;;;7355107;19;20014;-68
2022/10/27 02:59:15;;;;;;;22.88;13.13;;;11.70;68.80;;;;;;7363053;19;20017;-68
2022/10/27 03:01:45;;;;;;;22.42;13.20;;;11.70;68.70;;;;;;7365044;19;20038;-67
2022/10/27 03:04:18;;;;;;;20.25;13.13;;;11.70;68.40;;;;;;7362878;19;20015;-68
2022/10/27 03:06:47;;;;;;;25.58;13.82;;;11.70;68.20;;;;;;7377973;19;20579;-68
2022/10/27 03:09:17;;;;;;;21.10;12.35;;;11.70;68.30;;;;;;7361575;19;20014;-68
2022/10/27 03:11:47;;;;;;;19.05;11.85;;;11.70;67.40;;;;;;7361057;19;20015;-68
2022/10/27 03:14:16;;;;;;;22.92;12.38;;;11.70;67.30;;;;;;7364323;19;20010;-68
2022/10/27 03:16:46;;;;;;;20.10;13.27;;;11.60;67.20;;;;;;7354844;19;20014;-68
2022/10/27 03:19:18;;;;;;;24.73;12.43;;;11.60;67.20;;;;;;7362495;19;20014;-67
2022/10/27 03:21:48;;;;;;;22.52;13.13;;;11.60;67.30;;;;;;7383457;19;20011;-68
2022/10/27 03:24:18;;;;;;;26.05;12.82;;;11.60;67.20;;;;;;7360111;19;20014;-68
2022/10/27 03:26:48;;;;;;;19.58;12.15;;;11.60;67.20;;;;;;7351792;19;20038;-68
2022/10/27 03:29:17;;;;;;;24.02;12.23;;;11.60;67.20;;;;;;7360467;19;20015;-66
2022/10/27 03:31:47;;;;;;;19.83;12.40;;;11.50;67.10;;;;;;7358705;19;20064;-66
2022/10/27 03:34:20;;;;;;;24.30;13.48;;;11.50;67.20;;;;;;7361042;19;20022;-67
2022/10/27 03:36:50;;;;;;;24.05;13.85;;;11.40;67.00;;;;;;7377305;19;20011;-67
2022/10/27 03:39:19;;;;;;;25.45;13.45;;;11.50;67.20;;;;;;7361365;19;20018;-68
2022/10/27 03:41:49;;;;;;;23.33;13.38;;;11.40;67.10;;;;;;7361392;19;20042;-67
2022/10/27 03:44:19;;;;;;;25.45;14.52;;;11.40;67.20;;;;;;7362067;19;20103;-67
2022/10/27 03:46:49;;;;;;;26.13;14.98;;;11.40;67.70;;;;;;7354930;19;20277;-67
2022/10/27 03:49:21;;;;;;;22.83;14.23;;;11.50;68.00;;;;;;7360749;19;20034;-67
2022/10/27 03:51:51;;;;;;;21.98;14.23;;;11.50;68.20;;;;;;7382247;19;20031;-68
2022/10/27 03:54:20;;;;;;;31.67;15.13;;;11.50;68.20;;;;;;7361242;19;20026;-67
2022/10/27 03:56:50;;;;;;;26.33;14.50;;;11.50;68.00;;;;;;7353492;19;20071;-68
2022/10/27 03:59:20;;;;;;;20.95;14.15;;;11.50;68.10;;;;;;7361174;19;20014;-68
2022/10/27 04:01:50;;;;;;;23.95;14.25;;;11.50;68.20;;;;;;7362104;19;20010;-68
2022/10/27 04:04:22;;;;;;;27.90;13.93;;;11.40;67.90;;;;;;7361695;19;20793;-68
2022/10/27 04:06:52;;;;;;;24.58;13.45;;;11.40;67.90;;;;;;7376063;19;20118;-67
2022/10/27 04:09:22;;;;;;;24.80;14.13;;;11.40;68.00;;;;;;7358038;19;20038;-67
2022/10/27 04:11:52;;;;;;;26.10;13.55;;;11.30;67.80;;;;;;7360324;19;20030;-67
2022/10/27 04:14:21;;;;;;;17.80;13.07;;;11.30;67.90;;;;;;7361548;19;20010;-67
2022/10/27 04:16:51;;;;;;;19.80;13.50;;;11.30;68.00;;;;;;7355404;19;20961;-67
2022/10/27 04:19:24;;;;;;;21.73;13.45;;;11.30;68.10;;;;;;7359712;19;20675;-67
2022/10/27 04:21:53;;;;;;;20.90;13.68;;;11.30;68.20;;;;;;7383107;19;20050;-67
2022/10/27 04:24:23;;;;;;;20.85;13.85;;;11.20;67.90;;;;;;7359138;19;20041;-67
2022/10/27 04:26:53;;;;;;;25.85;14.15;;;11.20;67.90;;;;;;7353870;19;20007;-67
2022/10/27 04:29:22;;;;;;;22.85;14.05;;;11.20;68.10;;;;;;7358191;19;20015;-67
2022/10/27 04:31:52;;;;;;;23.95;13.30;;;11.20;68.40;;;;;;7361683;19;20411;-68
2022/10/27 04:34:25;;;;;;;20.40;13.23;;;11.20;68.60;;;;;;7359040;19;20050;-68
2022/10/27 04:36:56;;;;;;;30.00;13.48;;;11.30;68.80;;;;;;7375920;19;20042;-68
2022/10/27 04:39:26;;;;;;;23.58;14.18;;;11.20;68.60;;;;;;7359396;19;20014;-68
2022/10/27 04:41:57;;;;;;;21.35;13.80;;;11.30;68.90;;;;;;7361277;19;20002;-68
2022/10/27 04:44:27;;;;;;;25.75;14.32;;;11.20;68.80;;;;;;7358347;19;20019;-68
2022/10/27 04:46:57;;;;;;;22.70;13.90;;;11.20;68.80;;;;;;7354477;19;20011;-68
2022/10/27 04:49:29;;;;;;;29.10;14.25;;;11.10;68.70;;;;;;7359303;19;20018;-68
2022/10/27 04:51:59;;;;;;;26.10;14.65;;;11.10;68.80;;;;;;7381467;19;20007;-67
2022/10/27 04:54:29;;;;;;;24.63;14.52;;;11.10;68.90;;;;;;7356519;19;20466;-67
2022/10/27 04:56:58;;;;;;;20.33;13.70;;;11.10;68.80;;;;;;7352480;19;20045;-66
2022/10/27 04:59:28;;;;;;;26.55;14.70;;;11.00;68.70;;;;;;7357856;19;20501;-67
2022/10/27 05:01:58;;;;;;;23.90;14.00;;;11.10;69.20;;;;;;7360546;19;20018;-67
2022/10/27 05:04:30;;;;;;;21.70;13.75;;;11.10;69.30;;;;;;7355672;19;20379;-67
2022/10/27 05:07:00;;;;;;;24.67;13.88;;;11.00;69.10;;;;;;7361356;19;20033;-68
2022/10/27 05:09:30;;;;;;;24.70;14.18;;;11.00;69.10;;;;;;7380157;19;20007;-67
2022/10/27 05:12:00;;;;;;;22.05;14.45;;;11.00;69.10;;;;;;7358113;19;20366;-67
2022/10/27 05:14:29;;;;;;;27.55;15.68;;;11.00;69.20;;;;;;7356700;19;20014;-67
2022/10/27 05:17:00;;;;;;;30.08;15.52;;;11.00;69.50;;;;;;7353828;19;20355;-67
2022/10/27 05:19:32;;;;;;;24.77;15.57;;;11.00;69.80;;;;;;7358312;19;20018;-67
2022/10/27 05:22:02;;;;;;;26.63;14.85;;;11.00;69.70;;;;;;7359229;19;20003;-67
2022/10/27 05:24:32;;;;;;;25.48;15.52;;;11.00;69.80;;;;;;7376588;19;20038;-67
2022/10/27 05:27:01;;;;;;;24.95;15.52;;;11.10;70.10;;;;;;7350959;19;20014;-67
2022/10/27 05:29:32;;;;;;;25.17;16.23;;;11.10;70.10;;;;;;7357652;19;20578;-68
2022/10/27 05:32:02;;;;;;;25.00;15.70;;;11.10;70.20;;;;;;7357809;19;20161;-68
2022/10/27 05:34:34;;;;;;;29.23;16.48;;;11.10;70.10;;;;;;7355180;19;20019;-68
2022/10/27 05:37:04;;;;;;;31.55;19.63;;;11.10;70.00;;;;;;7350290;19;20407;-67
2022/10/27 05:39:34;;;;;;;29.35;18.13;;;11.10;69.90;;;;;;7377783;19;20034;-67
2022/10/27 05:42:03;;;;;;;28.80;16.90;;;11.10;69.80;;;;;;7364621;19;20011;-66
2022/10/27 05:44:33;;;;;;;28.45;16.35;;;11.10;69.60;;;;;;7362271;19;20558;-67
2022/10/27 05:47:03;;;;;;;26.92;15.50;;;11.00;69.30;;;;;;7357388;19;20018;-67
2022/10/27 05:49:35;;;;;;;33.40;17.08;;;11.00;69.20;;;;;;7364148;19;20015;-68
2022/10/27 05:52:05;;;;;;;26.15;15.77;;;11.00;69.10;;;;;;7365339;19;20011;-68
2022/10/27 05:54:35;;;;;;;25.13;16.15;;;11.00;68.70;;;;;;7383410;19;20014;-67
2022/10/27 05:57:05;;;;;;;27.65;17.65;;;11.10;68.90;;;;;;7356361;19;20022;-67
2022/10/27 05:59:35;;;;;;;36.33;19.13;;;11.10;68.90;;;;;;7364323;19;20035;-68
2022/10/27 06:02:04;;;;;;;31.15;18.55;;;11.20;68.60;;;;;;7360850;19;20042;-67
2022/10/27 06:04:38;;;;;;;28.02;18.85;;;11.20;68.50;;;;;;7362327;19;20010;-67
2022/10/27 06:07:09;;;;;;;26.65;17.08;;;11.30;68.50;;;;;;7356041;19;20331;-67
2022/10/27 06:09:38;;;;;;;27.95;17.13;;;11.30;68.00;;;;;;7385444;19;20485;-67
2022/10/27 06:12:08;;;;;;;30.13;17.20;;;11.30;67.70;;;;;;7363438;19;20015;-67
2022/10/27 06:14:38;;;;;;;26.75;16.60;;;11.30;67.50;;;;;;7362210;19;20015;-67
2022/10/27 06:17:08;;;;;;;31.58;17.42;;;11.30;67.10;;;;;;7357167;19;20015;-67
2022/10/27 06:19:40;;;;;;;30.33;16.83;;;11.30;66.90;;;;;;7362622;19;20364;-67
2022/10/27 06:22:10;;;;;;;29.35;17.10;;;11.30;66.90;;;;;;7365363;19;20044;-67
2022/10/27 06:24:45;;;;;;;30.02;17.05;;;11.40;66.90;;;;;;7382168;19;20506;-68
2022/10/27 06:27:15;;;;;;;26.15;16.60;;;11.40;66.40;;;;;;7355526;19;20458;-67
2022/10/27 06:29:44;;;;;;;27.38;16.58;;;11.40;66.20;;;;;;7362682;19;20007;-68
2022/10/27 06:32:14;;;;;;;26.67;16.33;;;11.50;65.70;;;;;;7363705;19;20038;-66
2022/10/27 06:34:46;;;;;;;26.83;16.70;;;11.50;65.50;;;;;;7362148;19;20014;-67
2022/10/27 06:37:16;;;;;;;30.02;15.85;;;11.60;65.10;;;;;;7355106;19;20601;-68
2022/10/27 06:39:46;;;;;;;26.33;15.75;;;11.60;64.30;;;;;;7383413;19;20580;-67
2022/10/27 06:42:16;;;;;;;24.42;15.32;;;11.70;63.40;;;;;;7364635;19;20030;-67
2022/10/27 06:44:45;;;;;;;24.60;14.05;;;11.70;63.10;;;;;;7360569;19;20021;-68
2022/10/27 06:47:15;;;;;;;23.85;13.63;;;11.70;62.40;;;;;;7356941;19;20034;-68
2022/10/27 06:49:47;;;;;;;21.17;13.38;;;11.80;61.70;;;;;;7363074;19;20461;-68
2022/10/27 06:52:17;;;;;;;20.98;12.98;;;11.70;60.30;;;;;;7363511;19;20018;-68
2022/10/27 06:54:47;;;;;;;20.05;12.68;;;11.70;59.90;;;;;;7382774;19;20011;-68
2022/10/27 06:57:22;;;;;;;24.90;13.48;;;11.80;60.00;;;;;;7354819;19;20019;-67
2022/10/27 07:00:14;;;;;;;19.40;12.27;;;11.80;59.10;;;;;;7359495;19;20014;-68
2022/10/27 07:02:44;;;;;;;25.60;12.65;;;11.80;58.90;;;;;;7362431;19;20014;-68
2022/10/27 07:05:16;;;;;;;25.38;12.55;;;11.90;59.00;;;;;;7361166;19;20026;-68
2022/10/27 07:07:48;;;;;;;23.33;13.38;;;12.00;57.80;;;;;;7354580;19;20047;-66
2022/10/27 07:10:20;;;;;;;20.45;12.85;;;12.10;57.30;;;;;;7362243;19;20018;-68
2022/10/27 07:12:54;;;;;;;21.45;12.30;;;12.10;57.10;;;;;;7384238;19;20011;-68
2022/10/27 07:15:24;;;;;;;25.45;13.75;;;12.20;57.00;;;;;;7358229;19;20078;-68
2022/10/27 07:17:58;;;;;;;17.85;12.68;;;12.20;55.80;;;;;;7355942;19;20010;-66
2022/10/27 07:20:33;;;;;;;19.00;11.93;;;12.30;55.50;;;;;;7362315;19;20030;-66
2022/10/27 07:23:04;;;;;;;23.05;11.32;;;12.40;55.20;;;;;;7363294;19;20018;-67
2022/10/27 07:25:35;;;;;;;17.85;10.85;;;12.50;53.80;;;;;;7361087;19;20097;-67
2022/10/27 07:28:05;;;;;;;18.70;10.27;;;12.50;51.90;;;;;;7354489;19;20015;-68
2022/10/27 07:30:38;;;;;;;18.23;10.52;;;12.60;50.60;;;;;;7381691;19;20457;-68
2022/10/27 07:33:08;;;;;;;16.90;10.70;;;12.60;50.00;;;;;;7361335;19;20607;-67
2022/10/27 07:35:40;;;;;;;20.05;10.13;;;12.70;49.30;;;;;;7359343;19;20376;-68
2022/10/27 07:38:10;;;;;;;15.80;9.52;;;12.70;49.10;;;;;;7354693;19;20458;-67
2022/10/27 07:40:40;;;;;;;17.17;8.82;;;12.70;47.80;;;;;;7361193;19;20010;-67
2022/10/27 07:43:11;;;;;;;22.15;8.90;;;12.60;46.30;;;;;;7361790;19;20011;-67
2022/10/27 07:45:43;;;;;;;16.83;8.80;;;12.70;47.20;;;;;;7380003;19;20018;-68
2022/10/27 07:48:15;;;;;;;13.85;9.00;;;12.80;46.50;;;;;;7355574;19;20533;-68
2022/10/27 07:50:47;;;;;;;14.75;9.02;;;12.90;45.80;;;;;;7359526;19;20811;-68
2022/10/27 07:53:37;;;;;;;16.98;9.48;;;13.00;44.00;;;;;;7359576;19;20017;-68
2022/10/27 07:56:07;;;;;;;15.23;9.93;;;13.00;43.90;;;;;;7355673;19;20432;-68
2022/10/27 07:58:37;;;;;;;15.63;8.90;;;13.10;43.90;;;;;;7357712;19;20018;-67
2022/10/27 08:01:07;;;;;;;16.75;9.75;;;13.20;43.00;;;;;;7359647;19;20421;-68
2022/10/27 08:03:36;;;;;;;13.57;8.70;;;13.30;41.50;;;;;;7384567;19;20014;-68
2022/10/27 08:06:29;;;;;;;13.68;8.18;;;13.30;40.90;;;;;;7353663;19;20015;-68
2022/10/27 08:08:58;;;;;;;13.40;8.40;;;13.50;40.20;;;;;;7361011;19;20031;-68
2022/10/27 08:11:28;;;;;;;15.30;8.35;;;13.60;39.40;;;;;;7359414;19;20047;-68
2022/10/27 08:13:58;;;;;;;12.82;8.15;;;13.70;38.40;;;;;;7360621;19;20022;-68
2022/10/27 08:16:28;;;;;;;15.02;8.57;;;13.80;37.90;;;;;;7354210;19;20014;-68
2022/10/27 08:18:57;;;;;;;12.70;7.88;;;13.90;37.00;;;;;;7382796;19;20017;-68
2022/10/27 08:21:30;;;;;;;12.23;7.63;;;14.10;36.40;;;;;;7359931;19;20033;-68
2022/10/27 08:24:00;;;;;;;16.17;8.07;;;14.20;34.60;;;;;;7361482;19;20038;-68
2022/10/27 08:26:29;;;;;;;13.85;7.70;;;14.30;32.20;;;;;;7352333;19;20535;-67
2022/10/27 08:28:59;;;;;;;14.43;8.30;;;14.40;32.20;;;;;;7359493;19;20703;-68
2022/10/27 08:31:29;;;;;;;19.65;8.73;;;14.50;30.80;;;;;;7359260;19;20014;-68
2022/10/27 08:33:59;;;;;;;15.13;7.50;;;14.50;30.90;;;;;;7381857;19;20018;-68
2022/10/27 08:36:31;;;;;;;15.25;7.50;;;14.60;30.00;;;;;;7351287;19;20011;-68
2022/10/27 08:39:01;;;;;;;19.20;7.25;;;14.80;28.90;;;;;;7359128;19;20014;-68
2022/10/27 08:41:40;;;;;;;12.88;7.60;;;14.90;27.50;;;;;;7358573;19;20010;-68
2022/10/27 08:44:21;;;;;;;14.32;6.05;;;15.00;25.90;;;;;;7359170;19;20014;-68
2022/10/27 08:46:53;;;;;;;11.50;5.80;;;15.20;23.50;;;;;;7353262;19;20014;-67
2022/10/27 08:49:29;;;;;;;7.90;5.60;;;15.30;22.50;;;;;;7359000;19;20019;-68
2022/10/27 08:52:07;;;;;;;11.93;6.18;;;15.40;21.10;;;;;;7378775;19;20014;-72
2022/10/27 08:54:38;;;;;;;17.95;6.40;;;15.50;20.80;;;;;;7377005;19;20015;-68
2022/10/27 08:57:12;;;;;;;13.77;5.93;;;15.50;20.50;;;;;;7352220;19;20010;-67
2022/10/27 08:59:42;;;;;;;13.77;5.72;;;15.70;18.50;;;;;;7357447;19;20026;-67
2022/10/27 09:02:31;;;;;;;16.42;5.93;;;15.80;17.90;;;;;;7358583;19;20014;-67
2022/10/27 09:05:22;;;;;;;12.27;5.13;;;15.80;16.40;;;;;;7355836;19;20061;-69
2022/10/27 09:08:04;;;;;;;12.82;4.97;;;15.90;14.90;;;;;;7351725;19;20018;-68
2022/10/27 09:10:43;;;;;;;13.80;5.38;;;16.00;13.10;;;;;;7357838;19;20021;-68
2022/10/27 09:13:22;;;;;;;8.00;4.85;;;16.20;12.10;;;;;;7358384;19;20534;-67
2022/10/27 09:15:54;;;;;;;8.30;4.75;;;16.30;13.60;;;;;;7380708;19;20025;-68
2022/10/27 09:18:29;;;;;;;10.40;4.60;;;16.40;12.20;;;;;;7361188;19;20584;-68
2022/10/27 09:21:01;;;;;;;9.45;4.80;;;16.40;12.20;;;;;;7363039;19;20446;-68
2022/10/27 09:23:37;;;;;;;9.48;5.00;;;16.40;12.70;;;;;;7365502;19;20011;-68
2022/10/27 09:26:08;;;;;;;7.45;4.40;;;16.50;12.00;;;;;;7363178;19;20094;-68
2022/10/27 09:28:42;;;;;;;9.60;4.47;;;16.50;10.40;;;;;;7361482;19;20037;-69
2022/10/27 09:31:17;;;;;;;8.95;4.72;;;16.60;10.90;;;;;;7363277;19;20018;-67
2022/10/27 09:33:54;;;;;;;15.10;4.68;;;16.80;10.80;;;;;;7385928;19;20018;-69
2022/10/27 09:36:25;;;;;;;6.38;4.50;;;16.80;5.50;;;;;;7360016;19;20015;-67
2022/10/27 09:38:57;;;;;;;12.85;4.80;;;16.90;5.90;;;;;;7359000;19;20042;-68
2022/10/27 09:41:27;;;;;;;8.45;4.03;;;17.00;5.40;;;;;;7363689;19;20344;-69
2022/10/27 09:43:59;;;;;;;7.88;4.18;;;17.10;6.30;;;;;;7361093;19;20108;-67
2022/10/27 09:46:31;;;;;;;13.30;4.78;;;17.10;5.20;;;;;;7360362;19;20071;-68
2022/10/27 09:49:06;;;;;;;15.15;5.10;;;17.10;3.90;;;;;;7359449;19;20036;-68
2022/10/27 09:51:45;;;;;;;14.65;4.75;;;17.20;4.80;;;;;;7384447;19;20018;-69
2022/10/27 09:54:37;;;;;;;10.98;4.57;;;17.30;3.50;;;;;;7362040;19;20025;-67
2022/10/27 09:57:10;;;;;;;9.85;4.20;;;17.30;4.50;;;;;;7355936;19;20011;-68
2022/10/27 09:59:42;;;;;;;8.90;3.90;;;17.40;3.00;;;;;;7363036;19;20074;-69
2022/10/27 10:02:26;;;;;;;9.80;4.80;;;17.50;3.10;;;;;;7363783;19;20470;-68
2022/10/27 10:04:57;;;;;;;9.02;4.30;;;17.60;1.30;;;;;;7361806;19;20021;-68
2022/10/27 10:07:33;;;;;;;12.55;6.00;;;17.60;1.40;;;;;;7358657;19;20018;-67
2022/10/27 10:10:09;;;;;;;13.05;5.20;;;17.70;2.60;;;;;;7364049;19;20022;-69
2022/10/27 10:12:39;;;;;;;11.20;5.25;;;17.80;1.80;;;;;;7385033;19;20015;-68
2022/10/27 10:15:20;;;;;;;10.25;4.47;;;17.80;1.10;;;;;;7359686;19;20007;-69
2022/10/27 10:17:56;;;;;;;12.40;4.18;;;17.90;1.70;;;;;;7359657;19;20010;-67
2022/10/27 10:20:37;;;;;;;11.15;4.65;;;18.00;1.30;;;;;;7362772;19;20006;-67
2022/10/27 10:23:20;;;;;;;10.30;4.60;;;18.10;1.00;;;;;;7363894;19;20101;-68
2022/10/27 10:25:54;;;;;;;11.70;4.22;;;18.10;1.00;;;;;;7359031;19;20010;-69
2022/10/27 10:28:32;;;;;;;11.90;4.68;;;18.10;1.00;;;;;;7359281;19;20014;-69
2022/10/27 10:31:04;;;;;;;11.20;4.78;;;18.30;1.00;;;;;;7362914;19;20018;-68
2022/10/27 10:33:36;;;;;;;13.80;5.07;;;18.40;1.00;;;;;;7385512;19;20617;-68
2022/10/27 10:36:20;;;;;;;13.15;4.82;;;18.50;1.00;;;;;;7358460;19;20506;-66
2022/10/27 10:38:54;;;;;;;9.40;4.55;;;18.60;1.00;;;;;;7357072;19;20010;-67
2022/10/27 10:41:27;;;;;;;10.30;3.80;;;18.60;1.00;;;;;;7361158;19;20034;-68
2022/10/27 10:44:10;;;;;;;14.10;4.50;;;18.70;1.00;;;;;;7360963;19;20025;-68
2022/10/27 10:46:42;;;;;;;8.90;3.67;;;18.80;1.00;;;;;;7360404;19;20033;-68
2022/10/27 10:49:22;;;;;;;13.10;4.07;;;19.00;1.00;;;;;;7359346;19;20022;-67
2022/10/27 10:51:53;;;;;;;10.43;4.47;;;19.00;1.00;;;;;;7383789;19;20455;-68
2022/10/27 10:54:26;;;;;;;13.43;4.60;;;19.10;1.00;;;;;;7360835;19;20027;-68
2022/10/27 10:56:58;;;;;;;9.45;3.15;;;19.10;1.00;;;;;;7355937;19;20018;-68
2022/10/27 10:59:31;;;;;;;7.32;3.53;;;19.20;1.00;;;;;;7362917;19;20458;-68
2022/10/27 11:02:08;;;;;;;10.68;4.80;;;19.20;1.00;;;;;;7362417;19;20469;-68
2022/10/27 11:04:43;;;;;;;10.68;5.63;;;19.30;1.00;;;;;;7358162;19;20015;-68
2022/10/27 11:07:22;;;;;;;9.77;4.40;;;19.30;1.00;;;;;;7355512;19;20041;-68
2022/10/27 11:09:59;;;;;;;12.20;4.22;;;19.40;1.00;;;;;;7383713;19;20027;-68
2022/10/27 11:12:39;;;;;;;13.13;3.95;;;19.50;1.00;;;;;;7360568;19;20014;-69
2022/10/27 11:15:20;;;;;;;8.48;3.42;;;19.50;1.00;;;;;;7356526;19;20006;-68
2022/10/27 11:17:53;;;;;;;11.32;3.80;;;19.50;1.00;;;;;;7356183;19;20007;-68
2022/10/27 11:20:26;;;;;;;9.27;3.28;;;19.60;1.00;;;;;;7360084;19;20015;-68
2022/10/27 11:22:57;;;;;;;12.27;3.60;;;19.70;1.00;;;;;;7362111;19;20018;-68
2022/10/27 11:25:32;;;;;;;13.88;3.20;;;19.70;1.00;;;;;;7358244;19;20115;-68
2022/10/27 11:28:14;;;;;;;6.53;3.28;;;19.90;1.00;;;;;;7354285;19;20493;-68
2022/10/27 11:30:52;;;;;;;8.02;2.60;;;19.90;1.00;;;;;;7381583;19;20011;-68
2022/10/27 11:33:38;;;;;;;9.32;3.60;;;19.90;1.00;;;;;;7362185;19;20014;-68
2022/10/27 11:36:13;;;;;;;8.65;3.38;;;20.00;1.00;;;;;;7356110;19;20401;-68
2022/10/27 11:38:55;;;;;;;9.35;4.05;;;20.00;1.00;;;;;;7353305;19;20539;-68
2022/10/27 11:41:32;;;;;;;9.60;3.50;;;20.10;1.00;;;;;;7358579;19;20323;-67
2022/10/27 11:44:11;;;;;;;10.43;3.53;;;20.30;1.00;;;;;;7360031;19;20052;-68
2022/10/27 11:46:44;;;;;;;6.47;3.72;;;20.30;1.00;;;;;;7355450;19;20014;-67
2022/10/27 11:49:22;;;;;;;17.60;4.35;;;20.30;1.00;;;;;;7356939;19;20046;-68
2022/10/27 11:51:58;;;;;;;13.60;4.07;;;20.40;1.00;;;;;;7381133;19;20011;-68
2022/10/27 11:54:28;;;;;;;8.90;2.97;;;20.40;1.00;;;;;;7360022;19;20006;-68
2022/10/27 11:57:11;;;;;;;8.40;3.25;;;20.50;1.00;;;;;;7355016;19;20014;-68
2022/10/27 12:00:15;;;;;;;5.80;2.85;;;20.60;1.00;;;;;;7359352;19;20042;-68
2022/10/27 12:03:22;;;;;;;10.98;3.30;;;20.60;1.00;;;;;;7360395;19;20018;-68
2022/10/27 12:05:59;;;;;;;6.13;2.75;;;20.60;1.00;;;;;;7354012;19;20482;-69
2022/10/27 12:08:38;;;;;;;10.40;2.97;;;20.70;1.00;;;;;;7354839;19;20023;-68
2022/10/27 12:11:19;;;;;;;14.98;3.25;;;20.80;1.00;;;;;;7357440;19;20462;-69
2022/10/27 12:13:55;;;;;;;16.08;3.15;;;20.70;1.00;;;;;;7360715;19;20021;-68
2022/10/27 12:16:36;;;;;;;8.48;2.70;;;20.80;1.00;;;;;;7355094;19;20021;-69
2022/10/27 12:19:11;;;;;;;8.38;2.78;;;20.80;1.00;;;;;;7353705;19;20014;-69
2022/10/27 12:21:46;;;;;;;8.65;3.00;;;20.80;1.00;;;;;;7380730;19;20014;-68
2022/10/27 12:24:22;;;;;;;9.32;2.78;;;21.00;1.00;;;;;;7359057;19;20491;-68
2022/10/27 12:26:57;;;;;;;8.20;2.83;;;21.00;1.00;;;;;;7353825;19;20018;-68
2022/10/27 12:29:33;;;;;;;9.23;2.58;;;21.00;1.00;;;;;;7356948;19;20014;-69
2022/10/27 12:32:11;;;;;;;6.68;2.40;;;21.00;1.00;;;;;;7359172;19;20018;-69
2022/10/27 12:34:45;;;;;;;7.35;2.72;;;21.10;1.00;;;;;;7355657;19;20014;-67
2022/10/27 12:37:21;;;;;;;5.85;2.70;;;21.00;1.00;;;;;;7352899;19;20019;-69
2022/10/27 12:39:59;;;;;;;7.05;2.40;;;21.10;1.00;;;;;;7379882;19;20717;-69
2022/10/27 12:42:40;;;;;;;10.93;2.45;;;21.10;1.00;;;;;;7356714;19;20038;-69
2022/10/27 12:45:35;;;;;;;8.52;2.53;;;21.20;1.00;;;;;;7354961;19;20018;-68
2022/10/27 12:48:17;;;;;;;9.98;2.55;;;21.20;1.00;;;;;;7352054;19;20014;-69
2022/10/27 12:50:57;;;;;;;8.20;2.83;;;21.30;1.00;;;;;;7353919;19;20494;-69
2022/10/27 12:53:38;;;;;;;11.45;2.65;;;21.30;1.00;;;;;;7357446;19;20038;-68
2022/10/27 12:56:18;;;;;;;9.43;2.80;;;21.30;1.00;;;;;;7353010;19;20086;-68
2022/10/27 12:59:00;;;;;;;8.20;3.53;;;21.40;1.00;;;;;;7351270;19;20018;-69
2022/10/27 13:01:39;;;;;;;9.75;3.20;;;21.40;1.00;;;;;;7356047;19;20083;-69
2022/10/27 13:04:48;;;;;;;8.45;2.83;;;21.40;1.00;;;;;;7357520;19;20020;-68
2022/10/27 13:07:55;;;;;;;10.20;2.90;;;21.40;1.00;;;;;;7349251;19;20025;-69
2022/10/27 13:10:57;;;;;;;8.23;2.97;;;21.50;1.00;;;;;;7356921;19;20466;-68